sensor_id;sensor_type;location;lat;lon;timestamp;P1;durP1;ratioP1;P2;durP2;ratioP2
43696;SDS011;29301;47.620;19.560;2022-10-16T00:01:57;0.50;;;0.40;;
43696;SDS011;29301;47.620;19.560;2022-10-16T00:04:22;0.40;;;0.35;;
43696;SDS011;29301;47.620;19.560;2022-10-16T00:06:48;0.52;;;0.40;;
43696;SDS011;29301;47.620;19.560;2022-10-16T00:09:13;0.47;;;0.30;;
43696;SDS011;29301;47.620;19.560;2022-10-16T00:11:39;0.40;;;0.30;;
43696;SDS011;29301;47.620;19.560;2022-10-16T00:14:07;0.40;;;0.30;;
43696;SDS011;29301;47.620;19.560;2022-10-16T00:16:35;0.40;;;0.30;;
43696;SDS011;29301;47.620;19.560;2022-10-16T00:19:00;0.40;;;0.40;;
43696;SDS011;29301;47.620;19.560;2022-10-16T00:21:27;0.40;;;0.30;;
43696;SDS011;29301;47.620;19.560;2022-10-16T00:23:58;0.50;;;0.40;;
43696;SDS011;29301;47.620;19.560;2022-10-16T00:26:26;0.50;;;0.40;;
43696;SDS011;29301;47.620;19.560;2022-10-16T00:28:54;0.60;;;0.40;;
43696;SDS011;29301;47.620;19.560;2022-10-16T00:31:20;0.60;;;0.40;;
43696;SDS011;29301;47.620;19.560;2022-10-16T00:33:47;0.55;;;0.40;;
43696;SDS011;29301;47.620;19.560;2022-10-16T00:36:15;0.45;;;0.40;;
43696;SDS011;29301;47.620;19.560;2022-10-16T00:38:42;0.40;;;0.40;;
43696;SDS011;29301;47.620;19.560;2022-10-16T00:41:13;0.40;;;0.32;;
43696;SDS011;29301;47.620;19.560;2022-10-16T00:43:48;0.50;;;0.40;;
43696;SDS011;29301;47.620;19.560;2022-10-16T00:48:45;0.45;;;0.40;;
43696;SDS011;29301;47.620;19.560;2022-10-16T00:51:28;0.50;;;0.40;;
43696;SDS011;29301;47.620;19.560;2022-10-16T00:54:01;0.30;;;0.30;;
43696;SDS011;29301;47.620;19.560;2022-10-16T00:56:29;0.50;;;0.40;;
43696;SDS011;29301;47.620;19.560;2022-10-16T00:58:54;0.40;;;0.40;;
43696;SDS011;29301;47.620;19.560;2022-10-16T01:01:20;0.50;;;0.40;;
43696;SDS011;29301;47.620;19.560;2022-10-16T01:03:46;0.55;;;0.40;;
43696;SDS011;29301;47.620;19.560;2022-10-16T01:11:45;0.47;;;0.40;;
43696;SDS011;29301;47.620;19.560;2022-10-16T01:14:16;0.50;;;0.40;;
43696;SDS011;29301;47.620;19.560;2022-10-16T01:17:06;0.50;;;0.40;;
43696;SDS011;29301;47.620;19.560;2022-10-16T01:22:03;0.50;;;0.40;;
43696;SDS011;29301;47.620;19.560;2022-10-16T01:24:38;0.40;;;0.30;;
43696;SDS011;29301;47.620;19.560;2022-10-16T01:37:40;0.60;;;0.40;;
43696;SDS011;29301;47.620;19.560;2022-10-16T01:40:11;0.50;;;0.40;;
43696;SDS011;29301;47.620;19.560;2022-10-16T01:42:46;0.52;;;0.40;;
43696;SDS011;29301;47.620;19.560;2022-10-16T01:45:25;0.50;;;0.40;;
43696;SDS011;29301;47.620;19.560;2022-10-16T01:47:53;0.50;;;0.40;;
43696;SDS011;29301;47.620;19.560;2022-10-16T01:50:20;0.60;;;0.40;;
43696;SDS011;29301;47.620;19.560;2022-10-16T01:52:47;0.60;;;0.40;;
43696;SDS011;29301;47.620;19.560;2022-10-16T01:55:18;0.60;;;0.40;;
43696;SDS011;29301;47.620;19.560;2022-10-16T01:57:49;0.65;;;0.43;;
43696;SDS011;29301;47.620;19.560;2022-10-16T02:00:17;0.60;;;0.40;;
43696;SDS011;29301;47.620;19.560;2022-10-16T02:02:46;0.60;;;0.40;;
43696;SDS011;29301;47.620;19.560;2022-10-16T02:05:16;0.65;;;0.40;;
43696;SDS011;29301;47.620;19.560;2022-10-16T02:08:04;0.60;;;0.40;;
43696;SDS011;29301;47.620;19.560;2022-10-16T02:10:29;0.68;;;0.40;;
43696;SDS011;29301;47.620;19.560;2022-10-16T02:13:06;0.60;;;0.40;;
43696;SDS011;29301;47.620;19.560;2022-10-16T02:15:37;0.50;;;0.40;;
43696;SDS011;29301;47.620;19.560;2022-10-16T02:18:04;0.60;;;0.40;;
43696;SDS011;29301;47.620;19.560;2022-10-16T02:20:37;0.55;;;0.40;;
43696;SDS011;29301;47.620;19.560;2022-10-16T02:23:34;0.60;;;0.40;;
43696;SDS011;29301;47.620;19.560;2022-10-16T02:26:23;0.52;;;0.40;;
43696;SDS011;29301;47.620;19.560;2022-10-16T02:28:55;0.60;;;0.40;;
43696;SDS011;29301;47.620;19.560;2022-10-16T02:31:30;0.60;;;0.40;;
43696;SDS011;29301;47.620;19.560;2022-10-16T02:33:59;0.60;;;0.40;;
43696;SDS011;29301;47.620;19.560;2022-10-16T02:36:29;0.63;;;0.40;;
43696;SDS011;29301;47.620;19.560;2022-10-16T02:38:56;0.60;;;0.40;;
43696;SDS011;29301;47.620;19.560;2022-10-16T02:41:25;0.70;;;0.50;;
43696;SDS011;29301;47.620;19.560;2022-10-16T02:43:51;0.60;;;0.40;;
43696;SDS011;29301;47.620;19.560;2022-10-16T02:46:17;0.68;;;0.50;;
43696;SDS011;29301;47.620;19.560;2022-10-16T02:48:43;0.70;;;0.40;;
43696;SDS011;29301;47.620;19.560;2022-10-16T02:51:09;0.60;;;0.40;;
43696;SDS011;29301;47.620;19.560;2022-10-16T02:53:34;0.70;;;0.50;;
43696;SDS011;29301;47.620;19.560;2022-10-16T02:56:00;0.68;;;0.40;;
43696;SDS011;29301;47.620;19.560;2022-10-16T02:58:26;0.70;;;0.40;;
43696;SDS011;29301;47.620;19.560;2022-10-16T03:00:52;0.70;;;0.50;;
43696;SDS011;29301;47.620;19.560;2022-10-16T03:03:18;0.68;;;0.40;;
43696;SDS011;29301;47.620;19.560;2022-10-16T03:05:43;0.60;;;0.40;;
43696;SDS011;29301;47.620;19.560;2022-10-16T03:08:11;0.70;;;0.50;;
43696;SDS011;29301;47.620;19.560;2022-10-16T03:10:37;0.70;;;0.50;;
43696;SDS011;29301;47.620;19.560;2022-10-16T03:13:02;0.70;;;0.50;;
43696;SDS011;29301;47.620;19.560;2022-10-16T03:15:28;0.70;;;0.50;;
43696;SDS011;29301;47.620;19.560;2022-10-16T03:17:54;0.70;;;0.45;;
43696;SDS011;29301;47.620;19.560;2022-10-16T03:20:22;0.68;;;0.40;;
43696;SDS011;29301;47.620;19.560;2022-10-16T03:22:47;0.70;;;0.50;;
43696;SDS011;29301;47.620;19.560;2022-10-16T03:25:13;0.70;;;0.40;;
43696;SDS011;29301;47.620;19.560;2022-10-16T03:27:39;0.70;;;0.50;;
43696;SDS011;29301;47.620;19.560;2022-10-16T03:30:04;0.60;;;0.40;;
43696;SDS011;29301;47.620;19.560;2022-10-16T03:32:30;0.70;;;0.50;;
43696;SDS011;29301;47.620;19.560;2022-10-16T03:34:56;0.70;;;0.50;;
43696;SDS011;29301;47.620;19.560;2022-10-16T03:37:22;0.68;;;0.40;;
43696;SDS011;29301;47.620;19.560;2022-10-16T03:39:48;0.70;;;0.47;;
43696;SDS011;29301;47.620;19.560;2022-10-16T03:42:14;0.60;;;0.40;;
43696;SDS011;29301;47.620;19.560;2022-10-16T03:44:39;0.70;;;0.40;;
43696;SDS011;29301;47.620;19.560;2022-10-16T03:47:05;0.65;;;0.40;;
43696;SDS011;29301;47.620;19.560;2022-10-16T03:49:31;0.70;;;0.50;;
43696;SDS011;29301;47.620;19.560;2022-10-16T03:51:56;0.70;;;0.50;;
43696;SDS011;29301;47.620;19.560;2022-10-16T03:54:22;0.70;;;0.50;;
43696;SDS011;29301;47.620;19.560;2022-10-16T03:56:48;0.70;;;0.50;;
43696;SDS011;29301;47.620;19.560;2022-10-16T03:59:13;0.70;;;0.50;;
43696;SDS011;29301;47.620;19.560;2022-10-16T04:01:40;0.70;;;0.50;;
43696;SDS011;29301;47.620;19.560;2022-10-16T04:04:05;0.70;;;0.50;;
43696;SDS011;29301;47.620;19.560;2022-10-16T04:06:31;0.70;;;0.50;;
43696;SDS011;29301;47.620;19.560;2022-10-16T04:08:57;0.70;;;0.50;;
43696;SDS011;29301;47.620;19.560;2022-10-16T04:11:22;0.77;;;0.50;;
43696;SDS011;29301;47.620;19.560;2022-10-16T04:13:48;0.70;;;0.50;;
43696;SDS011;29301;47.620;19.560;2022-10-16T04:16:14;0.70;;;0.50;;
43696;SDS011;29301;47.620;19.560;2022-10-16T04:18:39;0.70;;;0.50;;
43696;SDS011;29301;47.620;19.560;2022-10-16T04:21:05;0.70;;;0.50;;
43696;SDS011;29301;47.620;19.560;2022-10-16T04:23:32;0.77;;;0.50;;
43696;SDS011;29301;47.620;19.560;2022-10-16T04:25:58;0.70;;;0.50;;
43696;SDS011;29301;47.620;19.560;2022-10-16T04:28:25;0.70;;;0.50;;
43696;SDS011;29301;47.620;19.560;2022-10-16T04:30:51;0.70;;;0.50;;
43696;SDS011;29301;47.620;19.560;2022-10-16T04:33:17;0.70;;;0.50;;
43696;SDS011;29301;47.620;19.560;2022-10-16T04:35:43;0.70;;;0.43;;
43696;SDS011;29301;47.620;19.560;2022-10-16T04:38:09;0.60;;;0.50;;
43696;SDS011;29301;47.620;19.560;2022-10-16T04:40:34;0.70;;;0.50;;
43696;SDS011;29301;47.620;19.560;2022-10-16T04:43:03;0.70;;;0.50;;
43696;SDS011;29301;47.620;19.560;2022-10-16T04:45:29;0.80;;;0.50;;
43696;SDS011;29301;47.620;19.560;2022-10-16T04:47:58;0.70;;;0.50;;
43696;SDS011;29301;47.620;19.560;2022-10-16T04:50:24;0.70;;;0.50;;
43696;SDS011;29301;47.620;19.560;2022-10-16T04:52:50;0.75;;;0.50;;
43696;SDS011;29301;47.620;19.560;2022-10-16T04:55:16;0.70;;;0.50;;
43696;SDS011;29301;47.620;19.560;2022-10-16T04:57:41;0.70;;;0.50;;
43696;SDS011;29301;47.620;19.560;2022-10-16T05:00:07;0.70;;;0.40;;
43696;SDS011;29301;47.620;19.560;2022-10-16T05:02:33;0.70;;;0.50;;
43696;SDS011;29301;47.620;19.560;2022-10-16T05:04:59;0.70;;;0.50;;
43696;SDS011;29301;47.620;19.560;2022-10-16T05:07:25;0.70;;;0.50;;
43696;SDS011;29301;47.620;19.560;2022-10-16T05:09:51;0.70;;;0.50;;
43696;SDS011;29301;47.620;19.560;2022-10-16T05:12:16;0.60;;;0.40;;
43696;SDS011;29301;47.620;19.560;2022-10-16T05:14:42;0.70;;;0.50;;
43696;SDS011;29301;47.620;19.560;2022-10-16T05:17:08;0.70;;;0.50;;
43696;SDS011;29301;47.620;19.560;2022-10-16T05:19:34;0.70;;;0.50;;
43696;SDS011;29301;47.620;19.560;2022-10-16T05:21:59;0.70;;;0.50;;
43696;SDS011;29301;47.620;19.560;2022-10-16T05:24:25;0.73;;;0.50;;
43696;SDS011;29301;47.620;19.560;2022-10-16T05:26:51;0.70;;;0.50;;
43696;SDS011;29301;47.620;19.560;2022-10-16T05:29:17;0.70;;;0.50;;
43696;SDS011;29301;47.620;19.560;2022-10-16T05:31:43;0.80;;;0.50;;
43696;SDS011;29301;47.620;19.560;2022-10-16T05:34:08;0.70;;;0.50;;
43696;SDS011;29301;47.620;19.560;2022-10-16T05:36:34;0.70;;;0.50;;
43696;SDS011;29301;47.620;19.560;2022-10-16T05:39:00;0.70;;;0.50;;
43696;SDS011;29301;47.620;19.560;2022-10-16T05:41:26;0.70;;;0.50;;
43696;SDS011;29301;47.620;19.560;2022-10-16T05:43:52;0.70;;;0.50;;
43696;SDS011;29301;47.620;19.560;2022-10-16T05:46:18;0.63;;;0.40;;
43696;SDS011;29301;47.620;19.560;2022-10-16T05:48:44;0.70;;;0.50;;
43696;SDS011;29301;47.620;19.560;2022-10-16T05:51:11;0.70;;;0.50;;
43696;SDS011;29301;47.620;19.560;2022-10-16T05:53:38;0.70;;;0.47;;
43696;SDS011;29301;47.620;19.560;2022-10-16T05:56:06;0.70;;;0.50;;
43696;SDS011;29301;47.620;19.560;2022-10-16T05:58:34;0.70;;;0.50;;
43696;SDS011;29301;47.620;19.560;2022-10-16T06:01:02;0.70;;;0.50;;
43696;SDS011;29301;47.620;19.560;2022-10-16T06:03:36;0.70;;;0.50;;
43696;SDS011;29301;47.620;19.560;2022-10-16T06:06:12;0.70;;;0.43;;
43696;SDS011;29301;47.620;19.560;2022-10-16T06:08:40;0.70;;;0.40;;
43696;SDS011;29301;47.620;19.560;2022-10-16T06:11:07;0.70;;;0.50;;
43696;SDS011;29301;47.620;19.560;2022-10-16T06:13:35;0.70;;;0.50;;
43696;SDS011;29301;47.620;19.560;2022-10-16T06:16:01;0.70;;;0.40;;
43696;SDS011;29301;47.620;19.560;2022-10-16T06:18:28;0.70;;;0.50;;
43696;SDS011;29301;47.620;19.560;2022-10-16T06:20:55;0.80;;;0.50;;
43696;SDS011;29301;47.620;19.560;2022-10-16T06:23:21;0.60;;;0.40;;
43696;SDS011;29301;47.620;19.560;2022-10-16T06:25:47;0.65;;;0.40;;
43696;SDS011;29301;47.620;19.560;2022-10-16T06:28:13;0.60;;;0.40;;
43696;SDS011;29301;47.620;19.560;2022-10-16T06:30:40;0.60;;;0.40;;
43696;SDS011;29301;47.620;19.560;2022-10-16T06:33:05;0.70;;;0.47;;
43696;SDS011;29301;47.620;19.560;2022-10-16T06:35:31;0.70;;;0.50;;
43696;SDS011;29301;47.620;19.560;2022-10-16T06:37:57;0.70;;;0.50;;
43696;SDS011;29301;47.620;19.560;2022-10-16T06:40:23;0.70;;;0.50;;
43696;SDS011;29301;47.620;19.560;2022-10-16T06:42:49;0.70;;;0.50;;
43696;SDS011;29301;47.620;19.560;2022-10-16T06:45:16;0.70;;;0.50;;
43696;SDS011;29301;47.620;19.560;2022-10-16T06:47:42;0.70;;;0.50;;
43696;SDS011;29301;47.620;19.560;2022-10-16T06:50:08;0.70;;;0.50;;
43696;SDS011;29301;47.620;19.560;2022-10-16T06:52:34;0.70;;;0.50;;
43696;SDS011;29301;47.620;19.560;2022-10-16T06:54:59;0.70;;;0.50;;
43696;SDS011;29301;47.620;19.560;2022-10-16T06:57:25;0.70;;;0.50;;
43696;SDS011;29301;47.620;19.560;2022-10-16T06:59:51;0.68;;;0.47;;
43696;SDS011;29301;47.620;19.560;2022-10-16T07:02:17;0.70;;;0.50;;
43696;SDS011;29301;47.620;19.560;2022-10-16T07:04:42;0.80;;;0.50;;
43696;SDS011;29301;47.620;19.560;2022-10-16T07:07:08;0.80;;;0.50;;
43696;SDS011;29301;47.620;19.560;2022-10-16T07:09:34;0.70;;;0.50;;
43696;SDS011;29301;47.620;19.560;2022-10-16T07:11:59;0.70;;;0.50;;
43696;SDS011;29301;47.620;19.560;2022-10-16T07:14:25;0.70;;;0.50;;
43696;SDS011;29301;47.620;19.560;2022-10-16T07:16:51;0.70;;;0.40;;
43696;SDS011;29301;47.620;19.560;2022-10-16T07:19:17;0.70;;;0.50;;
43696;SDS011;29301;47.620;19.560;2022-10-16T07:21:43;0.70;;;0.50;;
43696;SDS011;29301;47.620;19.560;2022-10-16T07:24:18;0.70;;;0.50;;
43696;SDS011;29301;47.620;19.560;2022-10-16T07:26:44;0.70;;;0.50;;
43696;SDS011;29301;47.620;19.560;2022-10-16T07:29:14;0.70;;;0.50;;
43696;SDS011;29301;47.620;19.560;2022-10-16T07:31:43;0.70;;;0.40;;
43696;SDS011;29301;47.620;19.560;2022-10-16T07:34:10;0.65;;;0.40;;
43696;SDS011;29301;47.620;19.560;2022-10-16T07:36:37;0.60;;;0.40;;
43696;SDS011;29301;47.620;19.560;2022-10-16T07:39:03;0.60;;;0.40;;
43696;SDS011;29301;47.620;19.560;2022-10-16T07:41:29;0.60;;;0.40;;
43696;SDS011;29301;47.620;19.560;2022-10-16T07:43:55;0.50;;;0.40;;
43696;SDS011;29301;47.620;19.560;2022-10-16T07:46:22;0.70;;;0.40;;
43696;SDS011;29301;47.620;19.560;2022-10-16T07:48:48;0.63;;;0.40;;
43696;SDS011;29301;47.620;19.560;2022-10-16T07:51:15;0.68;;;0.40;;
43696;SDS011;29301;47.620;19.560;2022-10-16T07:53:43;0.50;;;0.40;;
43696;SDS011;29301;47.620;19.560;2022-10-16T07:56:08;0.50;;;0.40;;
43696;SDS011;29301;47.620;19.560;2022-10-16T07:58:34;0.40;;;0.40;;
43696;SDS011;29301;47.620;19.560;2022-10-16T08:01:04;0.40;;;0.30;;
43696;SDS011;29301;47.620;19.560;2022-10-16T08:03:31;0.55;;;0.40;;
43696;SDS011;29301;47.620;19.560;2022-10-16T08:05:57;0.50;;;0.40;;
43696;SDS011;29301;47.620;19.560;2022-10-16T08:08:24;0.50;;;0.40;;
43696;SDS011;29301;47.620;19.560;2022-10-16T08:10:50;0.50;;;0.40;;
43696;SDS011;29301;47.620;19.560;2022-10-16T08:13:15;0.50;;;0.40;;
43696;SDS011;29301;47.620;19.560;2022-10-16T08:15:41;0.40;;;0.30;;
43696;SDS011;29301;47.620;19.560;2022-10-16T08:18:08;0.50;;;0.40;;
43696;SDS011;29301;47.620;19.560;2022-10-16T08:20:35;0.40;;;0.40;;
43696;SDS011;29301;47.620;19.560;2022-10-16T08:23:01;0.60;;;0.40;;
43696;SDS011;29301;47.620;19.560;2022-10-16T08:25:27;0.60;;;0.40;;
43696;SDS011;29301;47.620;19.560;2022-10-16T08:27:54;0.55;;;0.40;;
43696;SDS011;29301;47.620;19.560;2022-10-16T08:30:20;0.45;;;0.40;;
43696;SDS011;29301;47.620;19.560;2022-10-16T08:32:47;0.40;;;0.30;;
43696;SDS011;29301;47.620;19.560;2022-10-16T08:35:14;0.40;;;0.30;;
43696;SDS011;29301;47.620;19.560;2022-10-16T08:37:40;0.50;;;0.40;;
43696;SDS011;29301;47.620;19.560;2022-10-16T08:40:07;0.50;;;0.40;;
43696;SDS011;29301;47.620;19.560;2022-10-16T08:45:30;0.47;;;0.40;;
43696;SDS011;29301;47.620;19.560;2022-10-16T08:50:51;0.40;;;0.40;;
43696;SDS011;29301;47.620;19.560;2022-10-16T08:53:20;0.40;;;0.30;;
43696;SDS011;29301;47.620;19.560;2022-10-16T08:55:53;0.40;;;0.30;;
43696;SDS011;29301;47.620;19.560;2022-10-16T08:58:20;0.47;;;0.40;;
43696;SDS011;29301;47.620;19.560;2022-10-16T09:00:54;0.40;;;0.40;;
43696;SDS011;29301;47.620;19.560;2022-10-16T09:03:33;0.40;;;0.30;;
43696;SDS011;29301;47.620;19.560;2022-10-16T09:14:23;0.30;;;0.30;;
43696;SDS011;29301;47.620;19.560;2022-10-16T09:17:00;0.40;;;0.30;;
43696;SDS011;29301;47.620;19.560;2022-10-16T09:22:40;0.40;;;0.30;;
43696;SDS011;29301;47.620;19.560;2022-10-16T09:25:14;0.40;;;0.30;;
43696;SDS011;29301;47.620;19.560;2022-10-16T09:27:42;0.30;;;0.30;;
43696;SDS011;29301;47.620;19.560;2022-10-16T09:30:17;0.40;;;0.40;;
43696;SDS011;29301;47.620;19.560;2022-10-16T09:32:45;0.50;;;0.40;;
43696;SDS011;29301;47.620;19.560;2022-10-16T09:35:19;0.40;;;0.30;;
43696;SDS011;29301;47.620;19.560;2022-10-16T09:37:50;0.35;;;0.30;;
43696;SDS011;29301;47.620;19.560;2022-10-16T09:46:00;0.30;;;0.30;;
43696;SDS011;29301;47.620;19.560;2022-10-16T09:48:33;0.30;;;0.30;;
43696;SDS011;29301;47.620;19.560;2022-10-16T09:51:20;0.40;;;0.30;;
43696;SDS011;29301;47.620;19.560;2022-10-16T09:53:56;0.40;;;0.30;;
43696;SDS011;29301;47.620;19.560;2022-10-16T09:56:29;0.30;;;0.30;;
43696;SDS011;29301;47.620;19.560;2022-10-16T09:58:58;0.30;;;0.30;;
43696;SDS011;29301;47.620;19.560;2022-10-16T10:01:35;0.40;;;0.30;;
43696;SDS011;29301;47.620;19.560;2022-10-16T10:04:03;0.40;;;0.30;;
43696;SDS011;29301;47.620;19.560;2022-10-16T10:06:34;0.40;;;0.30;;
43696;SDS011;29301;47.620;19.560;2022-10-16T10:09:19;0.30;;;0.30;;
43696;SDS011;29301;47.620;19.560;2022-10-16T10:11:58;0.30;;;0.30;;
43696;SDS011;29301;47.620;19.560;2022-10-16T10:14:35;0.30;;;0.30;;
43696;SDS011;29301;47.620;19.560;2022-10-16T10:27:24;0.40;;;0.30;;
43696;SDS011;29301;47.620;19.560;2022-10-16T10:32:47;0.40;;;0.30;;
43696;SDS011;29301;47.620;19.560;2022-10-16T10:35:22;0.40;;;0.30;;
43696;SDS011;29301;47.620;19.560;2022-10-16T10:38:16;0.40;;;0.30;;
43696;SDS011;29301;47.620;19.560;2022-10-16T10:51:30;0.40;;;0.30;;
43696;SDS011;29301;47.620;19.560;2022-10-16T10:54:07;0.40;;;0.30;;
43696;SDS011;29301;47.620;19.560;2022-10-16T10:59:36;0.40;;;0.30;;
43696;SDS011;29301;47.620;19.560;2022-10-16T11:08:19;0.40;;;0.30;;
43696;SDS011;29301;47.620;19.560;2022-10-16T11:13:33;0.30;;;0.20;;
43696;SDS011;29301;47.620;19.560;2022-10-16T11:16:13;0.40;;;0.30;;
43696;SDS011;29301;47.620;19.560;2022-10-16T11:18:59;0.30;;;0.20;;
43696;SDS011;29301;47.620;19.560;2022-10-16T11:21:47;0.30;;;0.20;;
43696;SDS011;29301;47.620;19.560;2022-10-16T11:27:09;0.35;;;0.20;;
43696;SDS011;29301;47.620;19.560;2022-10-16T11:29:57;0.40;;;0.30;;
43696;SDS011;29301;47.620;19.560;2022-10-16T11:32:32;0.30;;;0.20;;
43696;SDS011;29301;47.620;19.560;2022-10-16T11:35:15;0.40;;;0.30;;
43696;SDS011;29301;47.620;19.560;2022-10-16T11:37:47;0.40;;;0.30;;
43696;SDS011;29301;47.620;19.560;2022-10-16T11:43:34;0.40;;;0.30;;
43696;SDS011;29301;47.620;19.560;2022-10-16T11:45:46;0.32;;;0.28;;
43696;SDS011;29301;47.620;19.560;2022-10-16T11:50:58;0.30;;;0.30;;
43696;SDS011;29301;47.620;19.560;2022-10-16T11:56:20;0.30;;;0.20;;
43696;SDS011;29301;47.620;19.560;2022-10-16T11:58:51;0.30;;;0.30;;
43696;SDS011;29301;47.620;19.560;2022-10-16T12:01:30;0.30;;;0.22;;
43696;SDS011;29301;47.620;19.560;2022-10-16T12:04:25;0.40;;;0.30;;
43696;SDS011;29301;47.620;19.560;2022-10-16T12:07:14;0.40;;;0.30;;
43696;SDS011;29301;47.620;19.560;2022-10-16T12:09:43;0.40;;;0.30;;
43696;SDS011;29301;47.620;19.560;2022-10-16T12:15:15;0.30;;;0.20;;
43696;SDS011;29301;47.620;19.560;2022-10-16T12:17:43;0.50;;;0.35;;
43696;SDS011;29301;47.620;19.560;2022-10-16T12:22:40;0.30;;;0.30;;
43696;SDS011;29301;47.620;19.560;2022-10-16T12:25:21;0.30;;;0.30;;
43696;SDS011;29301;47.620;19.560;2022-10-16T12:27:56;0.30;;;0.30;;
43696;SDS011;29301;47.620;19.560;2022-10-16T12:30:24;0.30;;;0.20;;
43696;SDS011;29301;47.620;19.560;2022-10-16T12:32:53;0.40;;;0.30;;
43696;SDS011;29301;47.620;19.560;2022-10-16T12:35:21;0.30;;;0.20;;
43696;SDS011;29301;47.620;19.560;2022-10-16T12:37:50;0.40;;;0.30;;
43696;SDS011;29301;47.620;19.560;2022-10-16T12:40:24;0.30;;;0.20;;
43696;SDS011;29301;47.620;19.560;2022-10-16T12:42:53;0.40;;;0.30;;
43696;SDS011;29301;47.620;19.560;2022-10-16T12:45:32;0.30;;;0.30;;
43696;SDS011;29301;47.620;19.560;2022-10-16T12:48:02;0.30;;;0.20;;
43696;SDS011;29301;47.620;19.560;2022-10-16T12:50:42;0.40;;;0.30;;
43696;SDS011;29301;47.620;19.560;2022-10-16T12:53:19;0.40;;;0.30;;
43696;SDS011;29301;47.620;19.560;2022-10-16T12:56:02;0.40;;;0.30;;
43696;SDS011;29301;47.620;19.560;2022-10-16T12:59:18;0.40;;;0.20;;
43696;SDS011;29301;47.620;19.560;2022-10-16T13:01:37;0.40;;;0.25;;
43696;SDS011;29301;47.620;19.560;2022-10-16T13:04:34;0.30;;;0.20;;
43696;SDS011;29301;47.620;19.560;2022-10-16T13:21:16;0.38;;;0.20;;
43696;SDS011;29301;47.620;19.560;2022-10-16T13:27:00;0.30;;;0.30;;
43696;SDS011;29301;47.620;19.560;2022-10-16T13:29:38;0.38;;;0.22;;
43696;SDS011;29301;47.620;19.560;2022-10-16T13:32:07;0.30;;;0.20;;
43696;SDS011;29301;47.620;19.560;2022-10-16T13:34:44;0.40;;;0.30;;
43696;SDS011;29301;47.620;19.560;2022-10-16T13:37:17;0.30;;;0.20;;
43696;SDS011;29301;47.620;19.560;2022-10-16T13:39:44;0.40;;;0.30;;
43696;SDS011;29301;47.620;19.560;2022-10-16T13:42:13;0.30;;;0.20;;
43696;SDS011;29301;47.620;19.560;2022-10-16T13:44:47;0.30;;;0.30;;
43696;SDS011;29301;47.620;19.560;2022-10-16T13:47:23;0.30;;;0.20;;
43696;SDS011;29301;47.620;19.560;2022-10-16T13:50:00;0.40;;;0.30;;
43696;SDS011;29301;47.620;19.560;2022-10-16T13:52:30;0.38;;;0.28;;
43696;SDS011;29301;47.620;19.560;2022-10-16T13:54:56;0.30;;;0.20;;
43696;SDS011;29301;47.620;19.560;2022-10-16T13:57:23;0.30;;;0.20;;
43696;SDS011;29301;47.620;19.560;2022-10-16T13:59:50;0.40;;;0.30;;
43696;SDS011;29301;47.620;19.560;2022-10-16T14:04:54;0.40;;;0.30;;
43696;SDS011;29301;47.620;19.560;2022-10-16T14:07:27;0.40;;;0.22;;
43696;SDS011;29301;47.620;19.560;2022-10-16T14:10:03;0.30;;;0.20;;
43696;SDS011;29301;47.620;19.560;2022-10-16T14:12:43;0.40;;;0.30;;
43696;SDS011;29301;47.620;19.560;2022-10-16T14:15:16;0.40;;;0.20;;
43696;SDS011;29301;47.620;19.560;2022-10-16T14:17:44;0.30;;;0.20;;
43696;SDS011;29301;47.620;19.560;2022-10-16T14:20:14;0.40;;;0.30;;
43696;SDS011;29301;47.620;19.560;2022-10-16T14:22:41;0.40;;;0.30;;
43696;SDS011;29301;47.620;19.560;2022-10-16T14:27:59;0.40;;;0.28;;
43696;SDS011;29301;47.620;19.560;2022-10-16T14:30:29;0.30;;;0.20;;
43696;SDS011;29301;47.620;19.560;2022-10-16T14:37:55;0.30;;;0.20;;
43696;SDS011;29301;47.620;19.560;2022-10-16T14:40:23;0.30;;;0.20;;
43696;SDS011;29301;47.620;19.560;2022-10-16T14:42:51;0.40;;;0.30;;
43696;SDS011;29301;47.620;19.560;2022-10-16T14:45:20;0.30;;;0.20;;
43696;SDS011;29301;47.620;19.560;2022-10-16T14:47:52;0.40;;;0.30;;
43696;SDS011;29301;47.620;19.560;2022-10-16T14:50:21;0.40;;;0.28;;
43696;SDS011;29301;47.620;19.560;2022-10-16T14:52:47;0.40;;;0.30;;
43696;SDS011;29301;47.620;19.560;2022-10-16T14:55:12;0.40;;;0.30;;
43696;SDS011;29301;47.620;19.560;2022-10-16T14:57:38;0.40;;;0.30;;
43696;SDS011;29301;47.620;19.560;2022-10-16T15:00:23;0.30;;;0.20;;
43696;SDS011;29301;47.620;19.560;2022-10-16T15:02:49;0.30;;;0.20;;
43696;SDS011;29301;47.620;19.560;2022-10-16T15:05:19;0.40;;;0.30;;
43696;SDS011;29301;47.620;19.560;2022-10-16T15:07:47;0.40;;;0.30;;
43696;SDS011;29301;47.620;19.560;2022-10-16T15:10:14;0.40;;;0.30;;
43696;SDS011;29301;47.620;19.560;2022-10-16T15:12:44;0.40;;;0.30;;
43696;SDS011;29301;47.620;19.560;2022-10-16T15:17:51;0.40;;;0.30;;
43696;SDS011;29301;47.620;19.560;2022-10-16T15:20:24;0.40;;;0.30;;
43696;SDS011;29301;47.620;19.560;2022-10-16T15:22:51;0.30;;;0.30;;
43696;SDS011;29301;47.620;19.560;2022-10-16T15:27:52;0.30;;;0.20;;
43696;SDS011;29301;47.620;19.560;2022-10-16T15:30:17;0.40;;;0.30;;
43696;SDS011;29301;47.620;19.560;2022-10-16T15:32:43;0.30;;;0.20;;
43696;SDS011;29301;47.620;19.560;2022-10-16T15:35:09;0.30;;;0.20;;
43696;SDS011;29301;47.620;19.560;2022-10-16T15:37:35;0.40;;;0.28;;
43696;SDS011;29301;47.620;19.560;2022-10-16T15:40:00;0.30;;;0.20;;
43696;SDS011;29301;47.620;19.560;2022-10-16T15:42:26;0.30;;;0.20;;
43696;SDS011;29301;47.620;19.560;2022-10-16T15:44:52;0.40;;;0.30;;
43696;SDS011;29301;47.620;19.560;2022-10-16T15:47:17;0.40;;;0.30;;
43696;SDS011;29301;47.620;19.560;2022-10-16T15:49:43;0.38;;;0.30;;
43696;SDS011;29301;47.620;19.560;2022-10-16T15:52:09;0.40;;;0.30;;
43696;SDS011;29301;47.620;19.560;2022-10-16T15:54:34;0.40;;;0.30;;
43696;SDS011;29301;47.620;19.560;2022-10-16T15:57:00;0.40;;;0.30;;
43696;SDS011;29301;47.620;19.560;2022-10-16T15:59:26;0.40;;;0.30;;
43696;SDS011;29301;47.620;19.560;2022-10-16T16:01:51;0.40;;;0.30;;
43696;SDS011;29301;47.620;19.560;2022-10-16T16:04:17;0.40;;;0.30;;
43696;SDS011;29301;47.620;19.560;2022-10-16T16:06:43;0.30;;;0.30;;
43696;SDS011;29301;47.620;19.560;2022-10-16T16:09:12;0.30;;;0.30;;
43696;SDS011;29301;47.620;19.560;2022-10-16T16:11:38;0.40;;;0.30;;
43696;SDS011;29301;47.620;19.560;2022-10-16T16:14:07;0.40;;;0.30;;
43696;SDS011;29301;47.620;19.560;2022-10-16T16:16:36;0.43;;;0.30;;
43696;SDS011;29301;47.620;19.560;2022-10-16T16:19:03;0.40;;;0.30;;
43696;SDS011;29301;47.620;19.560;2022-10-16T16:21:31;0.40;;;0.30;;
43696;SDS011;29301;47.620;19.560;2022-10-16T16:23:58;0.40;;;0.30;;
43696;SDS011;29301;47.620;19.560;2022-10-16T16:26:25;0.32;;;0.30;;
43696;SDS011;29301;47.620;19.560;2022-10-16T16:28:53;0.40;;;0.30;;
43696;SDS011;29301;47.620;19.560;2022-10-16T16:31:20;0.30;;;0.30;;
43696;SDS011;29301;47.620;19.560;2022-10-16T16:33:49;0.30;;;0.30;;
43696;SDS011;29301;47.620;19.560;2022-10-16T16:36:16;0.38;;;0.30;;
43696;SDS011;29301;47.620;19.560;2022-10-16T16:38:43;0.30;;;0.30;;
43696;SDS011;29301;47.620;19.560;2022-10-16T16:41:13;0.40;;;0.30;;
43696;SDS011;29301;47.620;19.560;2022-10-16T16:43:40;0.40;;;0.30;;
43696;SDS011;29301;47.620;19.560;2022-10-16T16:46:08;0.40;;;0.30;;
43696;SDS011;29301;47.620;19.560;2022-10-16T16:48:34;0.40;;;0.30;;
43696;SDS011;29301;47.620;19.560;2022-10-16T16:51:07;0.40;;;0.30;;
43696;SDS011;29301;47.620;19.560;2022-10-16T16:53:35;0.40;;;0.30;;
43696;SDS011;29301;47.620;19.560;2022-10-16T16:56:04;0.40;;;0.30;;